Terminal Aerodrome Forecast
Issued by NWS Melbourne, FL

Home | Current Version | Previous Version | Text Only | Print | Product List | Glossary On
Versions: 1 2 3 4 5 6 7 8 9 10 11 12 13 14 15 16 17 18 19 20 21 22 23 24 25 26 27
056
FTUS42 KMLB 041328 AAB
TAFMLB
TAF AMD
KMLB 041328Z 0413/0512 22007KT P6SM VCSH SCT030 OVC100
      TEMPO 0413/0414 VRB20G28KT 2SM TSRA SCT015 BKN030CB OVC060
     FM041400 23011G17KT P6SM VCTS OVC019CB
      TEMPO 0414/0418 3SM TSRA OVC019CB
     FM042000 27011KT P6SM VCSH BKN025 BKN040=

USA.gov is the U.S. government's official web portal to all federal, state and local government web resources and services.